Startpagina
METAR-TAF:

METAR-TAF

Vliegvelden :

Luchthaven van Khartoem

Khartoem, Soedan

breedte: 15-36N, lengte: 032-33E, hoogte: 382 m

Actueel weer

Dit bericht is 19 minuten geleden gemaakt, om 21:00 UTC
Wind 12 kt uit het noordwesten
Temperatuur 26°C
Vochtigheid 79%
Druk 1014 hPa
Zicht 10 km of meer
Weinig wolken op 5000 ft, Cumulonimbus.
onweer, regen

METAR: HSSS 212100Z 31012KT 9999 TSRA FEW050CB 26/22 Q1014 NOSIG

Tijdstip: 00:19 (21:19 UTC)

Verwachting

Dit bericht is 4 uur en het 19 minuten geleden gemaakt, om 17:00 UTC
Verwachting geldig van 21 om 18 UTC tot 22 om 24 UTC
Wind 10 kt uit het zuidwesten met uitschieters tot 20 kt
Zicht 10 km of meer
Weinig wolken op 4000 ft
Verspreide wolken op 14000 ft
Kans 30% :
Tijdelijke
van 21 om 18 UTC tot 21 om 22 UTC
Zicht: 6000 m
Weinig wolken op 4000 ft, Cumulonimbus.
onweer, regen

TAF: HSSS 211700Z 2118/2224 22010G20KT 9999 FEW040 SCT140 PROB30 TEMPO 2118/2122 6000 TSRA FEW040CB

Waarnemingen en weersverwachtingen van meer dan 4000 vliegvelden (METAR en TAF).

De beschikbare stations zijn de gele en rode punten op de kaart.

Ga met uw muis naar het station om de naam te zien.

Klik dan om waarnemingen en weersverwachtingen te zien.

kaart wijzigen: klik op de groene knoppen met een zwart kruis om in te zoomen, op de groene knop met een streepje om uit te zoomen of op de groene pijlen voor aangrenzende kaarten.


METAR-TAF: